sensor_id;sensor_type;location;lat;lon;timestamp;noise_LAeq;noise_LA_min;noise_LA_max;noise_LA01;noise_LA95
66449;Laerm;56828;52.294;4.666;2023-03-01T00:00:02;36.22;34.19;39.14;;
66449;Laerm;56828;52.294;4.666;2023-03-01T00:00:13;36.21;34.32;38.12;;
66449;Laerm;56828;52.294;4.666;2023-03-01T00:00:23;37.88;34.62;41.26;;
66449;Laerm;56828;52.294;4.666;2023-03-01T00:00:34;38.14;35.65;41.56;;
66449;Laerm;56828;52.294;4.666;2023-03-01T00:00:44;37.69;33.70;40.67;;
66449;Laerm;56828;52.294;4.666;2023-03-01T00:01:06;37.24;34.38;41.92;;
66449;Laerm;56828;52.294;4.666;2023-03-01T00:01:19;38.18;35.43;41.47;;
66449;Laerm;56828;52.294;4.666;2023-03-01T00:01:30;38.02;35.20;40.80;;
66449;Laerm;56828;52.294;4.666;2023-03-01T00:01:41;43.67;35.56;49.21;;
66449;Laerm;56828;52.294;4.666;2023-03-01T00:01:51;48.32;36.22;58.48;;
66449;Laerm;56828;52.294;4.666;2023-03-01T00:02:02;38.36;35.81;40.77;;
66449;Laerm;56828;52.294;4.666;2023-03-01T00:02:12;39.07;35.34;42.56;;
66449;Laerm;56828;52.294;4.666;2023-03-01T00:02:22;38.02;34.80;42.14;;
66449;Laerm;56828;52.294;4.666;2023-03-01T00:02:33;36.72;34.18;39.38;;
66449;Laerm;56828;52.294;4.666;2023-03-01T00:02:43;36.38;33.98;39.25;;
66449;Laerm;56828;52.294;4.666;2023-03-01T00:02:53;36.96;34.50;39.28;;
66449;Laerm;56828;52.294;4.666;2023-03-01T00:03:03;37.01;34.83;39.43;;
66449;Laerm;56828;52.294;4.666;2023-03-01T00:03:16;39.81;35.59;44.56;;
66449;Laerm;56828;52.294;4.666;2023-03-01T00:03:27;37.38;35.04;40.22;;
66449;Laerm;56828;52.294;4.666;2023-03-01T00:03:37;37.08;34.40;40.39;;
66449;Laerm;56828;52.294;4.666;2023-03-01T00:03:47;36.20;33.85;38.36;;
66449;Laerm;56828;52.294;4.666;2023-03-01T00:03:58;37.42;34.28;42.40;;
66449;Laerm;56828;52.294;4.666;2023-03-01T00:04:08;35.82;33.35;39.48;;
66449;Laerm;56828;52.294;4.666;2023-03-01T00:04:19;35.39;33.11;37.49;;
66449;Laerm;56828;52.294;4.666;2023-03-01T00:04:29;36.47;34.26;38.62;;
66449;Laerm;56828;52.294;4.666;2023-03-01T00:04:39;38.63;34.26;51.42;;
66449;Laerm;56828;52.294;4.666;2023-03-01T00:04:49;37.89;34.68;41.68;;
66449;Laerm;56828;52.294;4.666;2023-03-01T00:05:00;36.29;32.94;41.37;;
66449;Laerm;56828;52.294;4.666;2023-03-01T00:05:10;36.74;33.12;43.01;;
66449;Laerm;56828;52.294;4.666;2023-03-01T00:05:21;39.62;36.66;42.49;;
66449;Laerm;56828;52.294;4.666;2023-03-01T00:05:31;39.39;36.22;42.96;;
66449;Laerm;56828;52.294;4.666;2023-03-01T00:05:45;37.30;34.50;41.06;;
66449;Laerm;56828;52.294;4.666;2023-03-01T00:05:55;38.07;34.69;41.02;;
66449;Laerm;56828;52.294;4.666;2023-03-01T00:06:06;36.23;33.83;41.32;;
66449;Laerm;56828;52.294;4.666;2023-03-01T00:06:16;35.71;33.43;41.21;;
66449;Laerm;56828;52.294;4.666;2023-03-01T00:06:27;35.99;33.67;38.87;;
66449;Laerm;56828;52.294;4.666;2023-03-01T00:06:37;37.21;35.22;40.30;;
66449;Laerm;56828;52.294;4.666;2023-03-01T00:06:48;37.79;33.98;41.76;;
66449;Laerm;56828;52.294;4.666;2023-03-01T00:06:58;38.27;34.51;41.05;;
66449;Laerm;56828;52.294;4.666;2023-03-01T00:07:08;36.73;34.56;38.99;;
66449;Laerm;56828;52.294;4.666;2023-03-01T00:07:18;36.61;34.21;40.30;;
66449;Laerm;56828;52.294;4.666;2023-03-01T00:07:29;36.61;33.91;39.91;;
66449;Laerm;56828;52.294;4.666;2023-03-01T00:07:39;35.86;33.36;39.15;;
66449;Laerm;56828;52.294;4.666;2023-03-01T00:07:52;36.39;33.89;39.32;;
66449;Laerm;56828;52.294;4.666;2023-03-01T00:08:02;35.99;33.57;38.87;;
66449;Laerm;56828;52.294;4.666;2023-03-01T00:08:12;36.26;33.04;38.82;;
66449;Laerm;56828;52.294;4.666;2023-03-01T00:08:23;35.51;33.93;37.71;;
66449;Laerm;56828;52.294;4.666;2023-03-01T00:08:34;35.75;33.58;38.07;;
66449;Laerm;56828;52.294;4.666;2023-03-01T00:08:44;36.00;33.82;38.04;;
66449;Laerm;56828;52.294;4.666;2023-03-01T00:08:54;37.14;34.57;39.79;;
66449;Laerm;56828;52.294;4.666;2023-03-01T00:09:05;36.96;33.90;41.09;;
66449;Laerm;56828;52.294;4.666;2023-03-01T00:09:15;37.75;33.03;43.04;;
66449;Laerm;56828;52.294;4.666;2023-03-01T00:09:25;38.51;34.86;41.45;;
66449;Laerm;56828;52.294;4.666;2023-03-01T00:09:36;38.77;35.70;41.05;;
66449;Laerm;56828;52.294;4.666;2023-03-01T00:09:47;38.70;33.88;42.50;;
66449;Laerm;56828;52.294;4.666;2023-03-01T00:09:57;34.94;32.78;36.45;;
66449;Laerm;56828;52.294;4.666;2023-03-01T00:10:07;34.94;32.72;37.02;;
66449;Laerm;56828;52.294;4.666;2023-03-01T00:10:18;35.43;33.51;37.11;;
66449;Laerm;56828;52.294;4.666;2023-03-01T00:10:28;35.07;33.02;37.52;;
66449;Laerm;56828;52.294;4.666;2023-03-01T00:10:38;37.65;34.63;40.82;;
66449;Laerm;56828;52.294;4.666;2023-03-01T00:10:49;39.60;36.20;43.83;;
66449;Laerm;56828;52.294;4.666;2023-03-01T00:11:00;41.60;36.96;45.54;;
66449;Laerm;56828;52.294;4.666;2023-03-01T00:11:30;37.71;34.47;42.93;;
66449;Laerm;56828;52.294;4.666;2023-03-01T00:11:40;37.79;34.88;41.63;;
66449;Laerm;56828;52.294;4.666;2023-03-01T00:11:51;35.72;33.73;37.82;;
66449;Laerm;56828;52.294;4.666;2023-03-01T00:12:01;35.16;33.16;36.78;;
66449;Laerm;56828;52.294;4.666;2023-03-01T00:12:11;34.76;32.79;37.93;;
66449;Laerm;56828;52.294;4.666;2023-03-01T00:12:21;36.54;34.38;38.95;;
66449;Laerm;56828;52.294;4.666;2023-03-01T00:12:32;35.11;33.09;37.06;;
66449;Laerm;56828;52.294;4.666;2023-03-01T00:12:42;34.53;32.70;36.63;;
66449;Laerm;56828;52.294;4.666;2023-03-01T00:12:53;35.18;32.65;37.13;;
66449;Laerm;56828;52.294;4.666;2023-03-01T00:13:03;35.60;32.90;39.45;;
66449;Laerm;56828;52.294;4.666;2023-03-01T00:13:15;36.35;34.02;39.27;;
66449;Laerm;56828;52.294;4.666;2023-03-01T00:13:25;36.30;34.13;38.75;;
66449;Laerm;56828;52.294;4.666;2023-03-01T00:13:36;38.16;35.53;42.83;;
66449;Laerm;56828;52.294;4.666;2023-03-01T00:13:47;36.42;33.70;38.69;;
66449;Laerm;56828;52.294;4.666;2023-03-01T00:13:58;35.81;33.71;38.64;;
66449;Laerm;56828;52.294;4.666;2023-03-01T00:14:09;38.43;35.72;41.81;;
66449;Laerm;56828;52.294;4.666;2023-03-01T00:14:19;38.81;35.66;43.16;;
66449;Laerm;56828;52.294;4.666;2023-03-01T00:14:29;36.85;33.55;41.77;;
66449;Laerm;56828;52.294;4.666;2023-03-01T00:14:40;37.23;34.59;42.57;;
66449;Laerm;56828;52.294;4.666;2023-03-01T00:14:50;37.00;34.48;39.60;;
66449;Laerm;56828;52.294;4.666;2023-03-01T00:15:00;36.03;34.16;38.47;;
66449;Laerm;56828;52.294;4.666;2023-03-01T00:15:11;35.70;34.00;37.80;;
66449;Laerm;56828;52.294;4.666;2023-03-01T00:15:21;35.32;33.48;41.98;;
66449;Laerm;56828;52.294;4.666;2023-03-01T00:15:31;35.86;33.80;38.37;;
66449;Laerm;56828;52.294;4.666;2023-03-01T00:15:42;36.00;34.02;38.15;;
66449;Laerm;56828;52.294;4.666;2023-03-01T00:15:53;38.09;34.17;45.12;;
66449;Laerm;56828;52.294;4.666;2023-03-01T00:16:07;35.86;33.79;39.74;;
66449;Laerm;56828;52.294;4.666;2023-03-01T00:16:37;36.04;33.73;38.93;;
66449;Laerm;56828;52.294;4.666;2023-03-01T00:16:49;36.04;33.54;39.10;;
66449;Laerm;56828;52.294;4.666;2023-03-01T00:16:59;35.43;33.49;37.38;;
66449;Laerm;56828;52.294;4.666;2023-03-01T00:17:10;36.67;33.64;41.17;;
66449;Laerm;56828;52.294;4.666;2023-03-01T00:17:20;36.63;34.40;38.44;;
66449;Laerm;56828;52.294;4.666;2023-03-01T00:17:31;36.55;34.02;38.90;;
66449;Laerm;56828;52.294;4.666;2023-03-01T00:17:41;37.20;35.25;39.11;;
66449;Laerm;56828;52.294;4.666;2023-03-01T00:17:51;40.54;36.47;43.48;;
66449;Laerm;56828;52.294;4.666;2023-03-01T00:18:02;40.74;36.26;44.48;;
66449;Laerm;56828;52.294;4.666;2023-03-01T00:18:12;37.65;34.36;41.18;;
66449;Laerm;56828;52.294;4.666;2023-03-01T00:18:22;38.42;36.20;40.86;;
66449;Laerm;56828;52.294;4.666;2023-03-01T00:18:33;37.47;35.40;39.20;;
66449;Laerm;56828;52.294;4.666;2023-03-01T00:18:43;36.45;34.51;38.82;;
66449;Laerm;56828;52.294;4.666;2023-03-01T00:18:54;37.89;33.95;43.25;;
66449;Laerm;56828;52.294;4.666;2023-03-01T00:19:05;39.34;36.47;44.58;;
66449;Laerm;56828;52.294;4.666;2023-03-01T00:19:16;39.26;33.81;45.13;;
66449;Laerm;56828;52.294;4.666;2023-03-01T00:19:27;36.30;34.05;39.68;;
66449;Laerm;56828;52.294;4.666;2023-03-01T00:19:37;38.74;34.02;46.66;;
66449;Laerm;56828;52.294;4.666;2023-03-01T00:19:47;36.65;33.91;39.02;;
66449;Laerm;56828;52.294;4.666;2023-03-01T00:19:58;36.91;34.42;39.48;;
66449;Laerm;56828;52.294;4.666;2023-03-01T00:20:08;36.09;33.08;42.70;;
66449;Laerm;56828;52.294;4.666;2023-03-01T00:20:20;35.01;32.70;37.35;;
66449;Laerm;56828;52.294;4.666;2023-03-01T00:20:30;35.61;33.22;38.63;;
66449;Laerm;56828;52.294;4.666;2023-03-01T00:20:40;35.99;33.88;38.59;;
66449;Laerm;56828;52.294;4.666;2023-03-01T00:20:51;36.73;34.65;39.22;;
66449;Laerm;56828;52.294;4.666;2023-03-01T00:21:02;38.10;35.69;40.56;;
66449;Laerm;56828;52.294;4.666;2023-03-01T00:21:12;36.75;34.24;39.07;;
66449;Laerm;56828;52.294;4.666;2023-03-01T00:21:23;38.82;34.90;43.74;;
66449;Laerm;56828;52.294;4.666;2023-03-01T00:21:33;37.08;35.34;39.04;;
66449;Laerm;56828;52.294;4.666;2023-03-01T00:21:45;38.80;35.52;43.67;;
66449;Laerm;56828;52.294;4.666;2023-03-01T00:21:55;36.94;33.21;41.30;;
66449;Laerm;56828;52.294;4.666;2023-03-01T00:22:06;37.79;33.69;41.52;;
66449;Laerm;56828;52.294;4.666;2023-03-01T00:22:16;37.11;33.85;42.61;;
66449;Laerm;56828;52.294;4.666;2023-03-01T00:22:26;36.37;33.47;44.53;;
66449;Laerm;56828;52.294;4.666;2023-03-01T00:22:38;36.01;33.79;38.77;;
66449;Laerm;56828;52.294;4.666;2023-03-01T00:22:48;34.89;32.97;36.36;;
66449;Laerm;56828;52.294;4.666;2023-03-01T00:23:13;35.20;32.93;37.44;;
66449;Laerm;56828;52.294;4.666;2023-03-01T00:23:24;35.26;32.97;37.17;;
66449;Laerm;56828;52.294;4.666;2023-03-01T00:23:35;35.25;33.00;37.16;;
66449;Laerm;56828;52.294;4.666;2023-03-01T00:23:45;35.31;33.04;37.24;;
66449;Laerm;56828;52.294;4.666;2023-03-01T00:24:04;34.97;33.18;36.90;;
66449;Laerm;56828;52.294;4.666;2023-03-01T00:24:15;35.08;32.38;37.22;;
66449;Laerm;56828;52.294;4.666;2023-03-01T00:24:25;35.76;33.68;39.20;;
66449;Laerm;56828;52.294;4.666;2023-03-01T00:24:35;35.59;33.63;37.33;;
66449;Laerm;56828;52.294;4.666;2023-03-01T00:24:45;35.39;33.43;37.76;;
66449;Laerm;56828;52.294;4.666;2023-03-01T00:24:56;35.52;33.60;37.22;;
66449;Laerm;56828;52.294;4.666;2023-03-01T00:25:06;35.69;34.08;38.03;;
66449;Laerm;56828;52.294;4.666;2023-03-01T00:25:16;36.83;34.92;38.55;;
66449;Laerm;56828;52.294;4.666;2023-03-01T00:25:27;36.29;33.44;38.71;;
66449;Laerm;56828;52.294;4.666;2023-03-01T00:25:41;37.15;35.16;39.35;;
66449;Laerm;56828;52.294;4.666;2023-03-01T00:25:51;36.30;33.54;38.82;;
66449;Laerm;56828;52.294;4.666;2023-03-01T00:26:02;36.82;34.79;39.94;;
66449;Laerm;56828;52.294;4.666;2023-03-01T00:26:17;37.66;35.22;41.42;;
66449;Laerm;56828;52.294;4.666;2023-03-01T00:26:27;37.30;35.48;40.53;;
66449;Laerm;56828;52.294;4.666;2023-03-01T00:26:38;36.19;34.22;38.71;;
66449;Laerm;56828;52.294;4.666;2023-03-01T00:26:48;37.47;33.97;41.63;;
66449;Laerm;56828;52.294;4.666;2023-03-01T00:27:02;38.13;34.28;43.16;;
66449;Laerm;56828;52.294;4.666;2023-03-01T00:27:12;36.79;34.78;39.38;;
66449;Laerm;56828;52.294;4.666;2023-03-01T00:27:23;37.79;33.94;43.96;;
66449;Laerm;56828;52.294;4.666;2023-03-01T00:27:33;35.41;32.49;37.56;;
66449;Laerm;56828;52.294;4.666;2023-03-01T00:27:43;35.40;32.81;37.62;;
66449;Laerm;56828;52.294;4.666;2023-03-01T00:27:54;35.48;32.85;37.39;;
66449;Laerm;56828;52.294;4.666;2023-03-01T00:28:04;35.21;32.91;37.47;;
66449;Laerm;56828;52.294;4.666;2023-03-01T00:28:14;35.48;33.22;37.52;;
66449;Laerm;56828;52.294;4.666;2023-03-01T00:28:25;35.36;32.78;37.80;;
66449;Laerm;56828;52.294;4.666;2023-03-01T00:28:35;34.92;32.47;36.89;;
66449;Laerm;56828;52.294;4.666;2023-03-01T00:28:46;35.34;33.09;37.36;;
66449;Laerm;56828;52.294;4.666;2023-03-01T00:28:57;34.69;32.58;36.71;;
66449;Laerm;56828;52.294;4.666;2023-03-01T00:29:07;34.86;32.94;36.50;;
66449;Laerm;56828;52.294;4.666;2023-03-01T00:29:18;35.12;33.03;36.84;;
66449;Laerm;56828;52.294;4.666;2023-03-01T00:29:28;35.08;32.95;36.85;;
66449;Laerm;56828;52.294;4.666;2023-03-01T00:29:38;35.56;33.65;37.60;;
66449;Laerm;56828;52.294;4.666;2023-03-01T00:29:49;34.73;32.73;38.02;;
66449;Laerm;56828;52.294;4.666;2023-03-01T00:29:59;34.59;32.65;36.20;;
66449;Laerm;56828;52.294;4.666;2023-03-01T00:30:09;34.97;33.18;36.93;;
66449;Laerm;56828;52.294;4.666;2023-03-01T00:30:20;36.61;34.29;39.21;;
66449;Laerm;56828;52.294;4.666;2023-03-01T00:30:30;38.02;34.85;41.33;;
66449;Laerm;56828;52.294;4.666;2023-03-01T00:30:41;38.74;35.11;43.64;;
66449;Laerm;56828;52.294;4.666;2023-03-01T00:30:51;37.64;35.08;41.20;;
66449;Laerm;56828;52.294;4.666;2023-03-01T00:31:02;43.07;33.96;54.19;;
66449;Laerm;56828;52.294;4.666;2023-03-01T00:31:18;35.47;32.92;38.35;;
66449;Laerm;56828;52.294;4.666;2023-03-01T00:31:30;35.13;32.42;37.50;;
66449;Laerm;56828;52.294;4.666;2023-03-01T00:31:41;36.15;34.22;38.95;;
66449;Laerm;56828;52.294;4.666;2023-03-01T00:31:51;36.82;34.29;39.09;;
66449;Laerm;56828;52.294;4.666;2023-03-01T00:32:01;36.59;33.16;38.57;;
66449;Laerm;56828;52.294;4.666;2023-03-01T00:32:12;36.86;34.20;42.14;;
66449;Laerm;56828;52.294;4.666;2023-03-01T00:32:22;36.36;34.13;38.31;;
66449;Laerm;56828;52.294;4.666;2023-03-01T00:32:33;36.01;33.77;37.99;;
66449;Laerm;56828;52.294;4.666;2023-03-01T00:32:43;35.76;33.47;39.45;;
66449;Laerm;56828;52.294;4.666;2023-03-01T00:32:53;34.89;32.45;37.48;;
66449;Laerm;56828;52.294;4.666;2023-03-01T00:33:03;35.40;32.94;38.16;;
66449;Laerm;56828;52.294;4.666;2023-03-01T00:33:14;36.27;32.67;38.66;;
66449;Laerm;56828;52.294;4.666;2023-03-01T00:33:24;34.83;32.69;38.11;;
66449;Laerm;56828;52.294;4.666;2023-03-01T00:33:34;34.72;32.94;36.42;;
66449;Laerm;56828;52.294;4.666;2023-03-01T00:33:45;34.18;31.91;36.69;;
66449;Laerm;56828;52.294;4.666;2023-03-01T00:33:56;34.18;32.15;35.92;;
66449;Laerm;56828;52.294;4.666;2023-03-01T00:34:07;35.00;32.63;37.54;;
66449;Laerm;56828;52.294;4.666;2023-03-01T00:34:18;36.68;33.68;43.05;;
66449;Laerm;56828;52.294;4.666;2023-03-01T00:34:28;34.78;33.06;36.84;;
66449;Laerm;56828;52.294;4.666;2023-03-01T00:34:38;34.98;32.25;36.97;;
66449;Laerm;56828;52.294;4.666;2023-03-01T00:34:49;35.32;33.48;37.48;;
66449;Laerm;56828;52.294;4.666;2023-03-01T00:35:04;36.42;33.84;40.57;;
66449;Laerm;56828;52.294;4.666;2023-03-01T00:35:15;35.62;32.88;37.72;;
66449;Laerm;56828;52.294;4.666;2023-03-01T00:35:26;35.50;32.82;38.75;;
66449;Laerm;56828;52.294;4.666;2023-03-01T00:35:36;34.42;32.96;36.26;;
66449;Laerm;56828;52.294;4.666;2023-03-01T00:35:46;34.97;33.12;36.78;;
66449;Laerm;56828;52.294;4.666;2023-03-01T00:36:00;34.88;33.15;36.88;;
66449;Laerm;56828;52.294;4.666;2023-03-01T00:36:10;35.24;32.77;37.00;;
66449;Laerm;56828;52.294;4.666;2023-03-01T00:36:21;35.58;33.00;38.19;;
66449;Laerm;56828;52.294;4.666;2023-03-01T00:36:32;35.30;33.43;37.37;;
66449;Laerm;56828;52.294;4.666;2023-03-01T00:36:43;35.93;33.94;37.83;;
66449;Laerm;56828;52.294;4.666;2023-03-01T00:36:53;39.07;35.70;43.64;;
66449;Laerm;56828;52.294;4.666;2023-03-01T00:37:03;35.74;33.21;38.98;;
66449;Laerm;56828;52.294;4.666;2023-03-01T00:37:15;36.16;32.77;42.76;;
66449;Laerm;56828;52.294;4.666;2023-03-01T00:37:25;35.49;32.92;39.14;;
66449;Laerm;56828;52.294;4.666;2023-03-01T00:37:35;35.03;32.80;38.23;;
66449;Laerm;56828;52.294;4.666;2023-03-01T00:37:46;34.51;32.82;36.26;;
66449;Laerm;56828;52.294;4.666;2023-03-01T00:37:56;34.10;32.51;35.59;;
66449;Laerm;56828;52.294;4.666;2023-03-01T00:38:08;34.27;32.23;35.99;;
66449;Laerm;56828;52.294;4.666;2023-03-01T00:38:18;34.11;32.07;35.80;;
66449;Laerm;56828;52.294;4.666;2023-03-01T00:38:29;35.07;32.75;37.92;;
66449;Laerm;56828;52.294;4.666;2023-03-01T00:38:40;34.32;32.49;36.01;;
66449;Laerm;56828;52.294;4.666;2023-03-01T00:38:51;34.42;32.60;36.58;;
66449;Laerm;56828;52.294;4.666;2023-03-01T00:39:02;34.84;33.01;37.86;;
66449;Laerm;56828;52.294;4.666;2023-03-01T00:39:13;36.25;33.60;40.74;;
66449;Laerm;56828;52.294;4.666;2023-03-01T00:39:24;38.35;35.10;41.78;;
66449;Laerm;56828;52.294;4.666;2023-03-01T00:39:34;42.18;37.76;46.04;;
66449;Laerm;56828;52.294;4.666;2023-03-01T00:39:45;45.76;41.37;48.64;;
66449;Laerm;56828;52.294;4.666;2023-03-01T00:39:55;45.83;38.04;49.81;;
66449;Laerm;56828;52.294;4.666;2023-03-01T00:40:05;38.12;35.40;40.50;;
66449;Laerm;56828;52.294;4.666;2023-03-01T00:40:16;37.53;34.06;40.80;;
66449;Laerm;56828;52.294;4.666;2023-03-01T00:40:27;40.54;36.52;45.78;;
66449;Laerm;56828;52.294;4.666;2023-03-01T00:40:38;36.87;34.08;40.95;;
66449;Laerm;56828;52.294;4.666;2023-03-01T00:40:48;34.87;32.76;36.75;;
66449;Laerm;56828;52.294;4.666;2023-03-01T00:41:08;34.49;32.76;36.13;;
66449;Laerm;56828;52.294;4.666;2023-03-01T00:41:19;34.38;32.15;36.32;;
66449;Laerm;56828;52.294;4.666;2023-03-01T00:41:30;35.25;32.80;37.41;;
66449;Laerm;56828;52.294;4.666;2023-03-01T00:41:40;34.95;32.46;36.85;;
66449;Laerm;56828;52.294;4.666;2023-03-01T00:41:50;34.57;32.56;36.50;;
66449;Laerm;56828;52.294;4.666;2023-03-01T00:42:01;34.75;32.68;36.78;;
66449;Laerm;56828;52.294;4.666;2023-03-01T00:42:11;35.37;33.60;37.44;;
66449;Laerm;56828;52.294;4.666;2023-03-01T00:42:21;35.82;33.78;38.15;;
66449;Laerm;56828;52.294;4.666;2023-03-01T00:42:32;36.34;33.65;39.36;;
66449;Laerm;56828;52.294;4.666;2023-03-01T00:42:42;35.25;33.12;37.60;;
66449;Laerm;56828;52.294;4.666;2023-03-01T00:42:52;35.48;33.51;37.80;;
66449;Laerm;56828;52.294;4.666;2023-03-01T00:43:03;36.74;34.38;39.45;;
66449;Laerm;56828;52.294;4.666;2023-03-01T00:43:13;36.31;33.62;40.46;;
66449;Laerm;56828;52.294;4.666;2023-03-01T00:43:23;35.37;33.04;37.96;;
66449;Laerm;56828;52.294;4.666;2023-03-01T00:43:34;35.13;33.08;39.99;;
66449;Laerm;56828;52.294;4.666;2023-03-01T00:43:46;39.42;35.03;45.55;;
66449;Laerm;56828;52.294;4.666;2023-03-01T00:43:56;39.89;33.26;43.93;;
66449;Laerm;56828;52.294;4.666;2023-03-01T00:44:07;35.39;33.13;37.72;;
66449;Laerm;56828;52.294;4.666;2023-03-01T00:44:17;38.16;33.29;43.21;;
66449;Laerm;56828;52.294;4.666;2023-03-01T00:44:27;34.81;32.80;36.56;;
66449;Laerm;56828;52.294;4.666;2023-03-01T00:44:38;34.16;32.18;35.80;;
66449;Laerm;56828;52.294;4.666;2023-03-01T00:44:48;34.36;32.44;36.36;;
66449;Laerm;56828;52.294;4.666;2023-03-01T00:44:58;34.31;32.44;36.20;;
66449;Laerm;56828;52.294;4.666;2023-03-01T00:45:09;35.50;33.58;37.53;;
66449;Laerm;56828;52.294;4.666;2023-03-01T00:45:19;35.02;32.76;37.80;;
66449;Laerm;56828;52.294;4.666;2023-03-01T00:45:30;34.17;32.31;36.34;;
66449;Laerm;56828;52.294;4.666;2023-03-01T00:45:43;34.40;32.36;36.50;;
66449;Laerm;56828;52.294;4.666;2023-03-01T00:45:53;33.97;31.66;35.89;;
66449;Laerm;56828;52.294;4.666;2023-03-01T00:46:05;35.10;32.62;38.60;;
66449;Laerm;56828;52.294;4.666;2023-03-01T00:46:16;34.61;32.81;36.70;;
66449;Laerm;56828;52.294;4.666;2023-03-01T00:46:27;34.52;32.58;36.54;;
66449;Laerm;56828;52.294;4.666;2023-03-01T00:46:40;35.14;33.24;40.33;;
66449;Laerm;56828;52.294;4.666;2023-03-01T00:46:50;36.76;33.26;42.12;;
66449;Laerm;56828;52.294;4.666;2023-03-01T00:47:00;35.14;33.11;36.87;;
66449;Laerm;56828;52.294;4.666;2023-03-01T00:47:11;36.88;33.54;40.05;;
66449;Laerm;56828;52.294;4.666;2023-03-01T00:47:21;40.79;36.75;47.60;;
66449;Laerm;56828;52.294;4.666;2023-03-01T00:47:31;48.97;44.19;53.59;;
66449;Laerm;56828;52.294;4.666;2023-03-01T00:47:42;43.48;39.55;47.54;;
66449;Laerm;56828;52.294;4.666;2023-03-01T00:47:52;41.75;38.33;44.74;;
66449;Laerm;56828;52.294;4.666;2023-03-01T00:48:03;43.18;36.74;47.18;;
66449;Laerm;56828;52.294;4.666;2023-03-01T00:48:15;43.42;39.84;47.70;;
66449;Laerm;56828;52.294;4.666;2023-03-01T00:48:25;45.50;39.99;49.37;;
66449;Laerm;56828;52.294;4.666;2023-03-01T00:48:36;38.74;35.78;44.14;;
66449;Laerm;56828;52.294;4.666;2023-03-01T00:48:46;38.10;34.43;41.66;;
66449;Laerm;56828;52.294;4.666;2023-03-01T00:48:57;36.32;34.09;38.60;;
66449;Laerm;56828;52.294;4.666;2023-03-01T00:49:07;36.44;34.23;38.59;;
66449;Laerm;56828;52.294;4.666;2023-03-01T00:49:18;36.14;34.02;37.86;;
66449;Laerm;56828;52.294;4.666;2023-03-01T00:49:28;36.33;33.90;37.96;;
66449;Laerm;56828;52.294;4.666;2023-03-01T00:49:38;36.36;33.25;39.92;;
66449;Laerm;56828;52.294;4.666;2023-03-01T00:49:49;35.25;33.60;37.44;;
66449;Laerm;56828;52.294;4.666;2023-03-01T00:49:59;36.15;33.67;40.24;;
66449;Laerm;56828;52.294;4.666;2023-03-01T00:50:09;35.29;33.32;37.39;;
66449;Laerm;56828;52.294;4.666;2023-03-01T00:50:20;35.30;32.83;38.72;;
66449;Laerm;56828;52.294;4.666;2023-03-01T00:50:30;35.59;33.25;38.40;;
66449;Laerm;56828;52.294;4.666;2023-03-01T00:50:41;37.14;34.50;41.12;;
66449;Laerm;56828;52.294;4.666;2023-03-01T00:50:51;36.24;34.15;39.92;;
66449;Laerm;56828;52.294;4.666;2023-03-01T00:51:05;35.41;32.99;38.08;;
66449;Laerm;56828;52.294;4.666;2023-03-01T00:51:16;37.29;34.50;40.38;;
66449;Laerm;56828;52.294;4.666;2023-03-01T00:51:27;34.83;32.75;36.66;;
66449;Laerm;56828;52.294;4.666;2023-03-01T00:51:38;35.80;33.87;38.62;;
66449;Laerm;56828;52.294;4.666;2023-03-01T00:51:51;34.77;32.35;36.98;;
66449;Laerm;56828;52.294;4.666;2023-03-01T00:52:01;36.31;33.77;39.52;;
66449;Laerm;56828;52.294;4.666;2023-03-01T00:52:12;35.35;33.22;37.63;;
66449;Laerm;56828;52.294;4.666;2023-03-01T00:52:22;34.42;32.73;36.10;;
66449;Laerm;56828;52.294;4.666;2023-03-01T00:52:32;35.81;33.77;37.64;;
66449;Laerm;56828;52.294;4.666;2023-03-01T00:52:42;36.34;34.59;37.91;;
66449;Laerm;56828;52.294;4.666;2023-03-01T00:52:53;35.07;32.68;37.83;;
66449;Laerm;56828;52.294;4.666;2023-03-01T00:53:04;34.70;32.42;36.75;;
66449;Laerm;56828;52.294;4.666;2023-03-01T00:53:15;34.76;32.82;37.36;;
66449;Laerm;56828;52.294;4.666;2023-03-01T00:53:25;34.93;32.84;36.90;;
66449;Laerm;56828;52.294;4.666;2023-03-01T00:53:36;34.38;32.23;37.25;;
66449;Laerm;56828;52.294;4.666;2023-03-01T00:53:46;35.34;32.71;37.85;;
66449;Laerm;56828;52.294;4.666;2023-03-01T00:53:58;34.80;32.21;37.52;;
66449;Laerm;56828;52.294;4.666;2023-03-01T00:54:09;35.36;33.31;37.65;;
66449;Laerm;56828;52.294;4.666;2023-03-01T00:54:19;35.92;34.00;37.85;;
66449;Laerm;56828;52.294;4.666;2023-03-01T00:54:29;35.44;33.51;38.36;;
66449;Laerm;56828;52.294;4.666;2023-03-01T00:54:39;34.94;32.73;36.52;;
66449;Laerm;56828;52.294;4.666;2023-03-01T00:54:51;34.81;32.77;37.01;;
66449;Laerm;56828;52.294;4.666;2023-03-01T00:55:02;35.31;33.11;40.12;;
66449;Laerm;56828;52.294;4.666;2023-03-01T00:55:13;35.01;32.37;37.76;;
66449;Laerm;56828;52.294;4.666;2023-03-01T00:55:23;35.75;32.76;41.21;;
66449;Laerm;56828;52.294;4.666;2023-03-01T00:55:34;36.48;33.20;43.05;;
66449;Laerm;56828;52.294;4.666;2023-03-01T00:55:45;35.45;32.75;38.50;;
66449;Laerm;56828;52.294;4.666;2023-03-01T00:55:56;35.31;32.93;37.96;;
66449;Laerm;56828;52.294;4.666;2023-03-01T00:56:08;34.76;32.89;37.06;;
66449;Laerm;56828;52.294;4.666;2023-03-01T00:56:18;34.75;32.44;37.47;;
66449;Laerm;56828;52.294;4.666;2023-03-01T00:56:29;34.99;33.05;38.30;;
66449;Laerm;56828;52.294;4.666;2023-03-01T00:56:39;34.70;32.69;37.04;;
66449;Laerm;56828;52.294;4.666;2023-03-01T00:56:50;34.57;32.90;36.90;;
66449;Laerm;56828;52.294;4.666;2023-03-01T00:57:00;34.78;32.39;37.10;;
66449;Laerm;56828;52.294;4.666;2023-03-01T00:57:10;34.22;32.46;36.44;;
66449;Laerm;56828;52.294;4.666;2023-03-01T00:57:20;33.82;32.08;35.67;;
66449;Laerm;56828;52.294;4.666;2023-03-01T00:57:31;33.46;31.83;35.26;;
66449;Laerm;56828;52.294;4.666;2023-03-01T00:57:42;34.36;32.54;36.67;;
66449;Laerm;56828;52.294;4.666;2023-03-01T00:57:52;35.57;33.21;39.74;;
66449;Laerm;56828;52.294;4.666;2023-03-01T00:58:02;36.20;32.92;39.21;;
66449;Laerm;56828;52.294;4.666;2023-03-01T00:58:13;34.90;32.90;37.70;;
66449;Laerm;56828;52.294;4.666;2023-03-01T00:58:23;33.87;31.84;35.52;;
66449;Laerm;56828;52.294;4.666;2023-03-01T00:58:34;34.93;32.90;36.90;;
66449;Laerm;56828;52.294;4.666;2023-03-01T00:58:44;35.11;33.12;37.16;;
66449;Laerm;56828;52.294;4.666;2023-03-01T00:58:54;35.89;33.64;39.69;;
66449;Laerm;56828;52.294;4.666;2023-03-01T00:59:05;35.22;32.92;36.67;;
66449;Laerm;56828;52.294;4.666;2023-03-01T00:59:15;35.83;33.72;38.42;;
66449;Laerm;56828;52.294;4.666;2023-03-01T00:59:25;36.79;34.13;39.11;;
66449;Laerm;56828;52.294;4.666;2023-03-01T00:59:36;39.15;34.52;47.22;;
66449;Laerm;56828;52.294;4.666;2023-03-01T00:59:46;36.65;34.08;40.09;;
66449;Laerm;56828;52.294;4.666;2023-03-01T00:59:56;35.09;32.85;37.25;;
66449;Laerm;56828;52.294;4.666;2023-03-01T01:00:07;36.62;33.81;38.85;;
66449;Laerm;56828;52.294;4.666;2023-03-01T01:00:19;36.61;34.07;40.69;;
66449;Laerm;56828;52.294;4.666;2023-03-01T01:00:30;35.61;33.27;37.65;;
66449;Laerm;56828;52.294;4.666;2023-03-01T01:00:40;34.90;33.18;36.49;;
66449;Laerm;56828;52.294;4.666;2023-03-01T01:00:50;34.92;32.19;36.83;;
66449;Laerm;56828;52.294;4.666;2023-03-01T01:01:12;35.40;33.09;38.78;;